South Colby, Washington
Current Conditions -  °F | °C
As of 7:35 PM on Friday 28 Nov 2014 (Local Time) from KPWT Reporting Station
Overcast Overcast  
Wind Chill: 37°   Ceiling: 2100
Heat Index: 37°   Visibility: 8mi
Dew Point: 37°   Wind: 3mph
Humidity: 100%   Direction: 130°SE
Pressure: 29.52"   Gusts: NA
Location:  47.52°N, 122.54°W
Report Text: KPWT 290335Z AUTO 13003KT 8SM FEW006 BKN021 OVC030 03/03 A2952 RMK AO1 P0001
Loading
Personal Weather Stations






























Interactive Weather Map New forecast layout! Learn more

10-Day Weather Forecast

Advertisements
Track Severe Weather on mobile